sensor_id;sensor_type;location;lat;lon;timestamp;P1;durP1;ratioP1;P2;durP2;ratioP2
14774;SDS011;7479;47.042;15.160;2023-08-12T05:19:53;6.40;;;5.80;;
14774;SDS011;7479;47.042;15.160;2023-08-12T05:35:10;6.07;;;4.13;;
14774;SDS011;7479;47.042;15.160;2023-08-12T05:40:03;4.80;;;4.03;;
14774;SDS011;7479;47.042;15.160;2023-08-12T05:53:41;4.00;;;3.50;;
14774;SDS011;7479;47.042;15.160;2023-08-12T05:58:35;5.27;;;3.40;;
14774;SDS011;7479;47.042;15.160;2023-08-12T06:03:29;3.83;;;3.27;;
14774;SDS011;7479;47.042;15.160;2023-08-12T06:08:23;4.45;;;3.25;;
14774;SDS011;7479;47.042;15.160;2023-08-12T06:21:36;3.20;;;2.90;;
14774;SDS011;7479;47.042;15.160;2023-08-12T06:26:29;4.32;;;3.17;;
14774;SDS011;7479;47.042;15.160;2023-08-12T06:31:23;3.72;;;2.90;;
14774;SDS011;7479;47.042;15.160;2023-08-12T06:44:45;3.13;;;2.83;;
14774;SDS011;7479;47.042;15.160;2023-08-12T06:49:42;4.82;;;2.65;;
14774;SDS011;7479;47.042;15.160;2023-08-12T07:02:49;4.22;;;2.90;;
14774;SDS011;7479;47.042;15.160;2023-08-12T07:07:43;3.22;;;2.55;;
14774;SDS011;7479;47.042;15.160;2023-08-12T07:21:16;3.28;;;2.97;;
14774;SDS011;7479;47.042;15.160;2023-08-12T07:26:10;4.78;;;2.45;;
14774;SDS011;7479;47.042;15.160;2023-08-12T07:40:06;2.83;;;2.63;;
14774;SDS011;7479;47.042;15.160;2023-08-12T07:45:01;2.75;;;2.38;;
14774;SDS011;7479;47.042;15.160;2023-08-12T07:59:29;4.90;;;2.80;;
14774;SDS011;7479;47.042;15.160;2023-08-12T08:04:23;2.75;;;2.50;;
14774;SDS011;7479;47.042;15.160;2023-08-12T08:19:32;2.45;;;2.25;;
14774;SDS011;7479;47.042;15.160;2023-08-12T08:24:25;3.08;;;2.40;;
14774;SDS011;7479;47.042;15.160;2023-08-12T08:39:57;3.42;;;2.50;;
14774;SDS011;7479;47.042;15.160;2023-08-12T08:44:52;5.53;;;3.00;;
14774;SDS011;7479;47.042;15.160;2023-08-12T08:59:36;3.13;;;2.65;;
14774;SDS011;7479;47.042;15.160;2023-08-12T09:04:30;4.20;;;3.53;;
14774;SDS011;7479;47.042;15.160;2023-08-12T09:09:24;3.05;;;2.80;;
14774;SDS011;7479;47.042;15.160;2023-08-12T09:14:18;5.28;;;3.35;;
14774;SDS011;7479;47.042;15.160;2023-08-12T09:19:15;4.93;;;3.30;;
14774;SDS011;7479;47.042;15.160;2023-08-12T09:24:11;4.68;;;3.22;;
14774;SDS011;7479;47.042;15.160;2023-08-12T09:29:05;3.30;;;3.00;;
14774;SDS011;7479;47.042;15.160;2023-08-12T09:34:03;4.22;;;3.30;;
14774;SDS011;7479;47.042;15.160;2023-08-12T09:39:07;3.03;;;2.72;;
14774;SDS011;7479;47.042;15.160;2023-08-12T09:44:02;3.65;;;3.05;;
14774;SDS011;7479;47.042;15.160;2023-08-12T09:48:56;3.45;;;3.15;;
14774;SDS011;7479;47.042;15.160;2023-08-12T09:53:50;4.93;;;3.13;;
14774;SDS011;7479;47.042;15.160;2023-08-12T09:58:47;3.03;;;2.60;;
14774;SDS011;7479;47.042;15.160;2023-08-12T10:03:42;2.90;;;2.65;;
14774;SDS011;7479;47.042;15.160;2023-08-12T10:08:40;3.13;;;2.65;;
14774;SDS011;7479;47.042;15.160;2023-08-12T10:13:34;3.83;;;2.72;;
14774;SDS011;7479;47.042;15.160;2023-08-12T10:18:31;2.85;;;2.30;;
14774;SDS011;7479;47.042;15.160;2023-08-12T10:23:25;2.88;;;2.60;;
14774;SDS011;7479;47.042;15.160;2023-08-12T10:28:19;3.10;;;2.80;;
14774;SDS011;7479;47.042;15.160;2023-08-12T10:33:13;4.10;;;3.00;;
14774;SDS011;7479;47.042;15.160;2023-08-12T10:38:10;3.05;;;2.75;;
14774;SDS011;7479;47.042;15.160;2023-08-12T10:43:05;3.00;;;2.38;;
14774;SDS011;7479;47.042;15.160;2023-08-12T10:48:09;2.75;;;2.50;;
14774;SDS011;7479;47.042;15.160;2023-08-12T10:53:21;2.67;;;2.47;;
14774;SDS011;7479;47.042;15.160;2023-08-12T10:58:24;3.08;;;2.50;;
14774;SDS011;7479;47.042;15.160;2023-08-12T11:03:20;3.67;;;2.85;;
14774;SDS011;7479;47.042;15.160;2023-08-12T11:08:14;4.72;;;3.67;;
14774;SDS011;7479;47.042;15.160;2023-08-12T11:13:09;4.03;;;2.45;;
14774;SDS011;7479;47.042;15.160;2023-08-12T11:18:03;3.00;;;2.70;;
14774;SDS011;7479;47.042;15.160;2023-08-12T11:22:58;3.30;;;3.00;;
14774;SDS011;7479;47.042;15.160;2023-08-12T11:27:53;3.00;;;2.70;;
14774;SDS011;7479;47.042;15.160;2023-08-12T11:32:49;3.10;;;2.80;;
14774;SDS011;7479;47.042;15.160;2023-08-12T11:37:44;2.75;;;2.40;;
14774;SDS011;7479;47.042;15.160;2023-08-12T11:42:39;3.67;;;2.47;;
14774;SDS011;7479;47.042;15.160;2023-08-12T11:47:33;2.50;;;2.30;;
14774;SDS011;7479;47.042;15.160;2023-08-12T11:52:29;4.22;;;2.83;;
14774;SDS011;7479;47.042;15.160;2023-08-12T11:57:24;2.97;;;2.67;;
14774;SDS011;7479;47.042;15.160;2023-08-12T12:02:19;4.07;;;2.70;;
14774;SDS011;7479;47.042;15.160;2023-08-12T12:07:17;3.17;;;2.65;;
14774;SDS011;7479;47.042;15.160;2023-08-12T12:12:13;3.28;;;2.97;;
14774;SDS011;7479;47.042;15.160;2023-08-12T12:17:07;3.33;;;2.70;;
14774;SDS011;7479;47.042;15.160;2023-08-12T12:22:02;3.03;;;2.58;;
14774;SDS011;7479;47.042;15.160;2023-08-12T12:26:57;3.05;;;2.47;;
14774;SDS011;7479;47.042;15.160;2023-08-12T12:31:52;2.70;;;2.50;;
14774;SDS011;7479;47.042;15.160;2023-08-12T12:36:46;3.47;;;2.58;;
14774;SDS011;7479;47.042;15.160;2023-08-12T12:41:39;2.83;;;2.63;;
14774;SDS011;7479;47.042;15.160;2023-08-12T12:46:33;3.20;;;2.78;;
14774;SDS011;7479;47.042;15.160;2023-08-12T12:51:29;3.22;;;2.38;;
14774;SDS011;7479;47.042;15.160;2023-08-12T12:56:23;2.78;;;2.42;;
14774;SDS011;7479;47.042;15.160;2023-08-12T13:01:17;2.85;;;2.65;;
14774;SDS011;7479;47.042;15.160;2023-08-12T13:06:11;2.80;;;2.60;;
14774;SDS011;7479;47.042;15.160;2023-08-12T13:11:06;3.22;;;2.90;;
14774;SDS011;7479;47.042;15.160;2023-08-12T13:16:00;4.45;;;3.00;;
14774;SDS011;7479;47.042;15.160;2023-08-12T13:20:54;3.13;;;2.83;;
14774;SDS011;7479;47.042;15.160;2023-08-12T13:25:47;3.13;;;2.60;;
14774;SDS011;7479;47.042;15.160;2023-08-12T13:30:43;5.05;;;2.95;;
14774;SDS011;7479;47.042;15.160;2023-08-12T13:35:37;4.32;;;2.92;;
14774;SDS011;7479;47.042;15.160;2023-08-12T13:40:31;4.20;;;2.83;;
14774;SDS011;7479;47.042;15.160;2023-08-12T13:45:25;3.55;;;2.53;;
14774;SDS011;7479;47.042;15.160;2023-08-12T13:50:23;3.55;;;2.50;;
14774;SDS011;7479;47.042;15.160;2023-08-12T13:55:17;3.83;;;2.80;;
14774;SDS011;7479;47.042;15.160;2023-08-12T14:00:11;4.47;;;2.92;;
14774;SDS011;7479;47.042;15.160;2023-08-12T14:05:07;4.00;;;3.70;;
14774;SDS011;7479;47.042;15.160;2023-08-12T14:10:04;3.17;;;2.67;;
14774;SDS011;7479;47.042;15.160;2023-08-12T14:14:59;2.70;;;2.50;;
14774;SDS011;7479;47.042;15.160;2023-08-12T14:19:58;3.17;;;2.60;;
14774;SDS011;7479;47.042;15.160;2023-08-12T14:24:51;3.80;;;2.70;;
14774;SDS011;7479;47.042;15.160;2023-08-12T14:29:47;2.90;;;2.60;;
14774;SDS011;7479;47.042;15.160;2023-08-12T14:34:40;3.63;;;2.80;;
14774;SDS011;7479;47.042;15.160;2023-08-12T14:39:36;5.10;;;2.80;;
14774;SDS011;7479;47.042;15.160;2023-08-12T14:44:30;3.25;;;2.53;;
14774;SDS011;7479;47.042;15.160;2023-08-12T14:49:29;5.32;;;2.58;;
14774;SDS011;7479;47.042;15.160;2023-08-12T14:54:23;2.92;;;2.72;;
14774;SDS011;7479;47.042;15.160;2023-08-12T14:59:17;3.13;;;2.60;;
14774;SDS011;7479;47.042;15.160;2023-08-12T15:04:10;3.67;;;2.95;;
14774;SDS011;7479;47.042;15.160;2023-08-12T15:09:06;2.78;;;2.35;;
14774;SDS011;7479;47.042;15.160;2023-08-12T15:14:01;2.67;;;2.40;;
14774;SDS011;7479;47.042;15.160;2023-08-12T15:18:55;2.97;;;2.67;;
14774;SDS011;7479;47.042;15.160;2023-08-12T15:23:49;3.05;;;2.25;;
14774;SDS011;7479;47.042;15.160;2023-08-12T15:28:44;4.50;;;4.10;;
14774;SDS011;7479;47.042;15.160;2023-08-12T15:33:37;4.45;;;2.80;;
14774;SDS011;7479;47.042;15.160;2023-08-12T15:38:31;2.35;;;2.10;;
14774;SDS011;7479;47.042;15.160;2023-08-12T15:43:25;2.50;;;2.30;;
14774;SDS011;7479;47.042;15.160;2023-08-12T15:48:21;2.53;;;2.33;;
14774;SDS011;7479;47.042;15.160;2023-08-12T15:53:15;3.42;;;2.33;;
14774;SDS011;7479;47.042;15.160;2023-08-12T15:58:08;3.90;;;2.47;;
14774;SDS011;7479;47.042;15.160;2023-08-12T16:03:02;3.08;;;2.65;;
14774;SDS011;7479;47.042;15.160;2023-08-12T16:07:58;2.60;;;2.40;;
14774;SDS011;7479;47.042;15.160;2023-08-12T16:12:51;2.55;;;2.35;;
14774;SDS011;7479;47.042;15.160;2023-08-12T16:17:45;3.78;;;2.42;;
14774;SDS011;7479;47.042;15.160;2023-08-12T16:22:39;2.72;;;2.53;;
14774;SDS011;7479;47.042;15.160;2023-08-12T16:27:34;5.13;;;2.20;;
14774;SDS011;7479;47.042;15.160;2023-08-12T16:32:28;3.45;;;2.78;;
14774;SDS011;7479;47.042;15.160;2023-08-12T16:37:23;2.80;;;2.47;;
14774;SDS011;7479;47.042;15.160;2023-08-12T16:42:16;3.22;;;2.47;;
14774;SDS011;7479;47.042;15.160;2023-08-12T16:47:15;4.63;;;2.75;;
14774;SDS011;7479;47.042;15.160;2023-08-12T16:52:09;4.43;;;2.35;;
14774;SDS011;7479;47.042;15.160;2023-08-12T16:57:09;3.42;;;2.90;;
14774;SDS011;7479;47.042;15.160;2023-08-12T17:02:04;2.70;;;2.40;;
14774;SDS011;7479;47.042;15.160;2023-08-12T17:06:59;3.00;;;2.40;;
14774;SDS011;7479;47.042;15.160;2023-08-12T17:11:53;2.70;;;2.50;;
14774;SDS011;7479;47.042;15.160;2023-08-12T17:16:47;2.60;;;2.40;;
14774;SDS011;7479;47.042;15.160;2023-08-12T17:21:41;2.75;;;2.50;;
14774;SDS011;7479;47.042;15.160;2023-08-12T17:26:36;3.03;;;2.70;;
14774;SDS011;7479;47.042;15.160;2023-08-12T17:31:30;3.00;;;2.67;;
14774;SDS011;7479;47.042;15.160;2023-08-12T17:36:24;3.72;;;2.92;;
14774;SDS011;7479;47.042;15.160;2023-08-12T17:41:17;4.28;;;2.90;;
14774;SDS011;7479;47.042;15.160;2023-08-12T17:46:12;3.10;;;2.80;;
14774;SDS011;7479;47.042;15.160;2023-08-12T17:51:05;4.82;;;2.92;;
14774;SDS011;7479;47.042;15.160;2023-08-12T17:56:04;3.63;;;3.30;;
14774;SDS011;7479;47.042;15.160;2023-08-12T18:00:58;3.95;;;3.10;;
14774;SDS011;7479;47.042;15.160;2023-08-12T18:05:53;4.85;;;3.10;;
14774;SDS011;7479;47.042;15.160;2023-08-12T18:10:48;4.10;;;3.25;;
14774;SDS011;7479;47.042;15.160;2023-08-12T18:15:41;5.47;;;3.60;;
14774;SDS011;7479;47.042;15.160;2023-08-12T18:20:35;4.32;;;3.25;;
14774;SDS011;7479;47.042;15.160;2023-08-12T18:25:30;3.85;;;3.50;;
14774;SDS011;7479;47.042;15.160;2023-08-12T18:30:24;5.47;;;3.53;;
14774;SDS011;7479;47.042;15.160;2023-08-12T18:35:17;6.93;;;4.10;;
14774;SDS011;7479;47.042;15.160;2023-08-12T18:40:11;5.47;;;4.40;;
14774;SDS011;7479;47.042;15.160;2023-08-12T18:45:07;4.30;;;3.90;;
14774;SDS011;7479;47.042;15.160;2023-08-12T18:50:01;5.13;;;4.50;;
14774;SDS011;7479;47.042;15.160;2023-08-12T18:54:55;4.32;;;3.78;;
14774;SDS011;7479;47.042;15.160;2023-08-12T18:59:48;5.10;;;4.15;;
14774;SDS011;7479;47.042;15.160;2023-08-12T19:04:44;4.00;;;3.60;;
14774;SDS011;7479;47.042;15.160;2023-08-12T19:09:37;3.78;;;3.08;;
14774;SDS011;7479;47.042;15.160;2023-08-12T19:14:31;4.55;;;3.30;;
14774;SDS011;7479;47.042;15.160;2023-08-12T19:19:25;3.60;;;3.30;;
14774;SDS011;7479;47.042;15.160;2023-08-12T19:24:20;5.60;;;4.35;;
14774;SDS011;7479;47.042;15.160;2023-08-12T19:29:14;7.30;;;3.97;;
14774;SDS011;7479;47.042;15.160;2023-08-12T19:34:07;4.85;;;4.35;;
14774;SDS011;7479;47.042;15.160;2023-08-12T19:39:02;10.88;;;4.70;;
14774;SDS011;7479;47.042;15.160;2023-08-12T19:43:57;5.20;;;4.38;;
14774;SDS011;7479;47.042;15.160;2023-08-12T19:48:51;5.65;;;4.30;;
14774;SDS011;7479;47.042;15.160;2023-08-12T19:53:46;11.65;;;6.50;;
14774;SDS011;7479;47.042;15.160;2023-08-12T19:58:40;5.10;;;4.60;;
14774;SDS011;7479;47.042;15.160;2023-08-12T20:03:35;4.10;;;3.70;;
14774;SDS011;7479;47.042;15.160;2023-08-12T20:08:29;5.07;;;3.63;;
14774;SDS011;7479;47.042;15.160;2023-08-12T20:13:23;7.50;;;3.50;;
14774;SDS011;7479;47.042;15.160;2023-08-12T20:18:18;5.43;;;4.53;;
14774;SDS011;7479;47.042;15.160;2023-08-12T20:23:13;5.07;;;4.30;;
14774;SDS011;7479;47.042;15.160;2023-08-12T20:28:07;4.18;;;3.78;;
14774;SDS011;7479;47.042;15.160;2023-08-12T20:33:00;5.38;;;3.97;;
14774;SDS011;7479;47.042;15.160;2023-08-12T20:37:55;4.72;;;4.03;;
14774;SDS011;7479;47.042;15.160;2023-08-12T20:42:50;4.85;;;3.95;;
14774;SDS011;7479;47.042;15.160;2023-08-12T20:47:44;5.40;;;4.03;;
14774;SDS011;7479;47.042;15.160;2023-08-12T20:52:38;6.00;;;3.67;;
14774;SDS011;7479;47.042;15.160;2023-08-12T20:57:32;5.40;;;3.80;;
